Aérodrome :
LOGIN :

S'inscrire | Disclaimer

   EN    FR    IT 

 










Légende :    VFR   VFR Marginal   IFR   IFR Intensif   IFR Très Intensif
Visi : 
Plafond : 
>= 8 km
>= 3000ft
5 à 8 km
1000 à 3000 ft
1500m à 5 km
500 à 1000 ft
800 à 1500m
200 à 500 ft
< 800m
< 200 ft
Symboles :   Orages  Brouillard  Fortes neiges  Fortes précipitations  Vent > 20 kt
SIGMETs :   Divers  Orages  Givrage  Turbulence  Onde Orograph.  Cendres Volcan.






- Altitude de l'aérodrome : 87 ft
- Code IATA : FSC


LFKF - Figari

DERNIER METAR :
  • 110100Z AUTO 03003KT CAVOK 18/17 Q1015

METARs EXPIRÉS :
  • 110030Z AUTO 04003KT CAVOK 18/17 Q1015
  • 110000Z AUTO 03002KT CAVOK 18/17 Q1015
  • 102330Z AUTO 03003KT CAVOK 19/18 Q1015
  • 102300Z AUTO 04004KT CAVOK 19/18 Q1015
  • 102230Z AUTO 03002KT CAVOK 19/18 Q1015

TAF TAF LFKF
Valide du 10 à 15h jusqu'au 11 à 15h UTC


101400Z 1015/1115 22013KT CAVOK
BECMG 1017/1019 VRB03KT
BECMG 1108/1110 23012KT



MET'MAP, la Météo Aéronautique d'un coup d'oeil ! - Copyright ORBIFLY Décembre 2007 - Disclaimer

ORBIFLY MET'MAP TEAM :

Programmation & Développement : Alexandra Zaïnal
Sur une idée originale de : Baudouin d'Aumeries
Assistance à la programmation : Marc-Olivier Méhu
Soutien technique & logistique : Manuel Goepfert

Contact : metmap@orbifly.com




SOURCES & CREDITS :

   NOAA